createdAt,value
2018-05-15T00:01:34.555Z,16.90
2018-05-15T00:04:02.885Z,16.70
2018-05-15T00:06:30.436Z,16.60
2018-05-15T00:08:57.959Z,16.60
2018-05-15T00:11:26.287Z,16.50
2018-05-15T00:13:53.834Z,16.50
2018-05-15T00:16:21.359Z,16.40
2018-05-15T00:18:48.905Z,16.30
2018-05-15T00:21:17.195Z,16.00
2018-05-15T00:23:44.704Z,16.00
2018-05-15T00:26:12.269Z,15.90
2018-05-15T00:28:39.789Z,15.90
2018-05-15T00:31:07.323Z,15.90
2018-05-15T00:33:35.020Z,15.80
2018-05-15T00:36:02.550Z,15.80
2018-05-15T00:38:30.075Z,15.80
2018-05-15T00:40:57.704Z,15.80
2018-05-15T00:43:25.247Z,15.70
2018-05-15T00:45:52.816Z,15.70
2018-05-15T00:48:20.383Z,15.80
2018-05-15T00:50:47.919Z,15.90
2018-05-15T00:53:15.457Z,15.90
2018-05-15T00:55:44.467Z,15.90
2018-05-15T00:58:12.048Z,16.00
2018-05-15T01:00:39.574Z,16.00
2018-05-15T01:03:07.140Z,16.00
2018-05-15T01:05:34.673Z,16.00
2018-05-15T01:08:02.987Z,16.00
2018-05-15T01:10:30.650Z,16.00
2018-05-15T01:12:58.171Z,15.90
2018-05-15T01:15:26.472Z,15.90
2018-05-15T01:17:54.141Z,15.80
2018-05-15T01:20:21.679Z,15.90
2018-05-15T01:22:49.221Z,15.80
2018-05-15T01:25:17.550Z,15.80
2018-05-15T01:27:45.100Z,15.80
2018-05-15T01:30:12.631Z,15.80
2018-05-15T01:32:40.191Z,15.80
2018-05-15T01:35:07.736Z,15.80
2018-05-15T01:37:35.269Z,15.70
2018-05-15T01:40:02.840Z,15.70
2018-05-15T01:42:31.168Z,15.70
2018-05-15T01:44:58.746Z,15.60
2018-05-15T01:47:26.338Z,15.60
2018-05-15T01:49:54.643Z,15.50
2018-05-15T01:52:22.206Z,15.50
2018-05-15T01:54:49.780Z,15.40
2018-05-15T01:57:17.301Z,15.30
2018-05-15T01:59:45.622Z,15.30
2018-05-15T02:02:13.531Z,15.30
2018-05-15T02:04:41.860Z,15.30
2018-05-15T02:07:09.464Z,15.30
2018-05-15T02:09:37.885Z,15.20
2018-05-15T02:12:05.416Z,15.20
2018-05-15T02:14:33.697Z,15.20
2018-05-15T02:17:01.242Z,15.10
2018-05-15T02:19:29.520Z,15.10
2018-05-15T02:21:57.816Z,15.10
2018-05-15T02:24:25.362Z,15.00
2018-05-15T02:26:53.662Z,15.00
2018-05-15T02:29:21.354Z,14.90
2018-05-15T02:31:49.507Z,14.90
2018-05-15T02:34:17.059Z,14.90
2018-05-15T02:36:44.616Z,15.00
2018-05-15T02:39:12.185Z,15.00
2018-05-15T02:41:39.705Z,15.00
2018-05-15T02:44:08.011Z,14.90
2018-05-15T02:46:35.596Z,14.80
2018-05-15T02:49:03.143Z,14.90
2018-05-15T02:51:30.679Z,14.90
2018-05-15T02:53:58.597Z,14.90
2018-05-15T02:56:26.124Z,14.80
2018-05-15T02:58:53.651Z,14.70
2018-05-15T03:01:21.205Z,14.70
2018-05-15T03:03:48.800Z,14.70
2018-05-15T03:06:16.337Z,14.80
2018-05-15T03:08:43.905Z,14.90
2018-05-15T03:11:11.438Z,14.90
2018-05-15T03:13:39.741Z,14.80
2018-05-15T03:16:07.293Z,14.70
2018-05-15T03:18:34.870Z,14.80
2018-05-15T03:21:02.427Z,14.80
2018-05-15T03:23:29.989Z,14.80
2018-05-15T03:25:57.527Z,14.80
2018-05-15T03:28:25.078Z,14.70
2018-05-15T03:30:52.665Z,14.60
2018-05-15T03:33:20.212Z,14.50
2018-05-15T03:35:47.763Z,14.60
2018-05-15T03:38:15.322Z,14.50
2018-05-15T03:40:42.859Z,14.50
2018-05-15T03:43:10.400Z,14.50
2018-05-15T03:45:38.839Z,14.40
2018-05-15T03:48:06.368Z,14.40
2018-05-15T03:50:33.942Z,14.40
2018-05-15T03:53:01.489Z,14.20
2018-05-15T03:55:29.733Z,14.20
2018-05-15T03:57:58.023Z,14.40
2018-05-15T04:00:39.633Z,14.30
2018-05-15T04:03:19.118Z,14.30
2018-05-15T04:05:58.625Z,14.30
2018-05-15T04:08:26.150Z,14.40
2018-05-15T04:10:53.742Z,14.30
2018-05-15T04:13:22.017Z,14.30
2018-05-15T04:15:49.547Z,14.30
2018-05-15T04:18:17.107Z,14.30
2018-05-15T04:20:44.686Z,14.20
2018-05-15T04:23:12.236Z,14.20
2018-05-15T04:25:39.751Z,14.20
2018-05-15T04:28:07.414Z,14.20
2018-05-15T04:30:34.877Z,14.20
2018-05-15T04:33:03.183Z,14.30
2018-05-15T04:35:31.377Z,14.20
2018-05-15T04:37:58.932Z,14.50
2018-05-15T04:40:26.479Z,14.60
2018-05-15T04:42:54.043Z,14.50
2018-05-15T04:45:21.579Z,14.60
2018-05-15T04:47:49.174Z,14.70
2018-05-15T04:50:16.726Z,14.70
2018-05-15T04:52:44.246Z,14.60
2018-05-15T04:55:11.831Z,14.60
2018-05-15T04:57:39.502Z,14.50
2018-05-15T05:00:07.025Z,14.50
2018-05-15T05:02:35.419Z,14.50
2018-05-15T05:05:02.930Z,14.40
2018-05-15T05:07:31.243Z,14.40
2018-05-15T05:09:58.821Z,14.40
2018-05-15T05:12:26.371Z,14.50
2018-05-15T05:14:53.951Z,14.60
2018-05-15T05:17:21.484Z,14.70
2018-05-15T05:19:49.072Z,14.70
2018-05-15T05:22:16.587Z,14.90
2018-05-15T05:24:44.884Z,15.10
2018-05-15T05:27:12.514Z,15.00
2018-05-15T05:29:40.006Z,15.10
2018-05-15T05:32:07.524Z,15.10
2018-05-15T05:34:35.853Z,15.20
2018-05-15T05:37:03.374Z,15.20
2018-05-15T05:39:31.658Z,15.50
2018-05-15T05:41:59.226Z,15.40
2018-05-15T05:44:26.802Z,15.50
2018-05-15T05:46:54.357Z,15.50
2018-05-15T05:49:21.920Z,15.60
2018-05-15T05:51:49.445Z,15.70
2018-05-15T05:54:17.045Z,15.80
2018-05-15T05:56:44.598Z,15.90
2018-05-15T05:59:12.134Z,16.00
2018-05-15T06:01:39.716Z,16.10
2018-05-15T06:04:07.685Z,16.20
2018-05-15T06:06:35.227Z,16.30
2018-05-15T06:09:03.280Z,16.40
2018-05-15T06:11:30.871Z,16.50
2018-05-15T06:13:58.417Z,16.70
2018-05-15T06:16:25.974Z,16.80
2018-05-15T06:18:53.542Z,16.90
2018-05-15T06:21:21.077Z,17.00
2018-05-15T06:23:48.605Z,17.10
2018-05-15T06:26:16.145Z,17.20
2018-05-15T06:28:43.661Z,17.40
2018-05-15T06:31:11.229Z,17.50
2018-05-15T06:33:38.808Z,17.60
2018-05-15T06:36:06.347Z,17.70
2018-05-15T06:38:33.870Z,17.80
2018-05-15T06:41:01.440Z,17.80
2018-05-15T06:43:29.749Z,18.00
2018-05-15T06:45:57.278Z,18.00
2018-05-15T06:48:24.838Z,18.10
2018-05-15T06:50:52.428Z,18.30
2018-05-15T06:53:19.955Z,18.40
2018-05-15T06:55:47.535Z,18.40
2018-05-15T06:58:15.101Z,18.40
2018-05-15T07:00:42.664Z,18.50
2018-05-15T07:03:10.224Z,18.60
2018-05-15T07:05:37.742Z,18.60
2018-05-15T07:08:06.013Z,19.00
2018-05-15T07:10:34.326Z,19.10
2018-05-15T07:13:01.851Z,19.00
2018-05-15T07:15:30.140Z,19.30
2018-05-15T07:17:57.683Z,19.20
2018-05-15T07:20:25.967Z,19.40
2018-05-15T07:22:53.496Z,19.40
2018-05-15T07:25:21.829Z,19.80
2018-05-15T07:27:49.348Z,19.70
2018-05-15T07:30:17.641Z,19.90
2018-05-15T07:32:45.211Z,19.90
2018-05-15T07:35:12.738Z,20.10
2018-05-15T07:37:41.071Z,20.20
2018-05-15T07:40:08.660Z,20.20
2018-05-15T07:42:36.609Z,20.40
2018-05-15T07:45:04.134Z,20.40
2018-05-15T07:47:32.622Z,20.70
2018-05-15T07:50:00.181Z,20.70
2018-05-15T07:52:27.746Z,20.70
2018-05-15T07:54:55.328Z,20.90
2018-05-15T07:57:22.866Z,20.90
2018-05-15T07:59:50.421Z,21.00
2018-05-15T08:02:17.976Z,21.00
2018-05-15T08:04:45.512Z,21.00
2018-05-15T08:07:13.087Z,21.20
2018-05-15T08:09:40.644Z,21.30
2018-05-15T08:12:08.159Z,21.40
2018-05-15T08:14:35.682Z,21.50
2018-05-15T08:17:03.292Z,21.60
2018-05-15T08:19:31.580Z,21.70
2018-05-15T08:21:59.094Z,21.60
2018-05-15T08:24:26.651Z,21.70
2018-05-15T08:26:54.168Z,21.90
2018-05-15T08:29:21.682Z,22.00
2018-05-15T08:31:49.226Z,22.10
2018-05-15T08:34:16.863Z,22.20
2018-05-15T08:36:44.420Z,22.30
2018-05-15T08:39:11.987Z,22.30
2018-05-15T08:41:39.509Z,22.50
2018-05-15T08:44:07.032Z,22.50
2018-05-15T08:46:34.669Z,22.60
2018-05-15T08:49:02.210Z,22.80
2018-05-15T08:51:29.782Z,22.90
2018-05-15T08:53:57.329Z,22.90
2018-05-15T08:56:24.858Z,23.00
2018-05-15T08:58:52.450Z,23.30
2018-05-15T09:01:20.036Z,23.30
2018-05-15T09:03:47.667Z,23.30
2018-05-15T09:06:15.179Z,23.30
2018-05-15T09:08:43.505Z,23.30
2018-05-15T09:11:11.030Z,23.30
2018-05-15T09:13:38.541Z,23.40
2018-05-15T09:16:06.185Z,23.50
2018-05-15T09:18:33.716Z,23.50
2018-05-15T09:21:02.317Z,23.60
2018-05-15T09:23:29.885Z,23.50
2018-05-15T09:25:57.422Z,23.70
2018-05-15T09:28:24.995Z,23.80
2018-05-15T09:30:52.547Z,23.90
2018-05-15T09:33:20.076Z,23.90
2018-05-15T09:35:47.602Z,24.00
2018-05-15T09:38:16.032Z,24.00
2018-05-15T09:40:43.569Z,24.00
2018-05-15T09:43:11.090Z,24.10
2018-05-15T09:45:38.655Z,24.10
2018-05-15T09:48:06.188Z,24.30
2018-05-15T09:50:33.736Z,24.20
2018-05-15T09:53:01.274Z,24.10
2018-05-15T09:55:28.800Z,24.00
2018-05-15T09:57:57.078Z,24.20
2018-05-15T10:00:31.104Z,24.10
2018-05-15T10:02:58.789Z,24.10
2018-05-15T10:05:26.311Z,24.20
2018-05-15T10:07:54.714Z,24.40
2018-05-15T10:10:22.154Z,24.30
2018-05-15T10:12:50.510Z,24.50
2018-05-15T10:15:18.029Z,24.40
2018-05-15T10:17:45.576Z,24.70
2018-05-15T10:20:13.100Z,24.60
2018-05-15T10:22:41.451Z,24.40
2018-05-15T10:25:08.982Z,24.40
2018-05-15T10:27:36.503Z,24.60
2018-05-15T10:30:04.154Z,24.80
2018-05-15T10:32:31.595Z,24.90
2018-05-15T10:34:59.123Z,25.00
2018-05-15T10:37:26.772Z,25.00
2018-05-15T10:39:55.954Z,25.10
2018-05-15T10:42:23.482Z,25.00
2018-05-15T10:44:51.824Z,25.20
2018-05-15T10:47:19.337Z,25.10
2018-05-15T10:49:46.871Z,25.20
2018-05-15T10:52:15.203Z,25.10
2018-05-15T10:54:42.722Z,25.00
2018-05-15T10:57:11.047Z,25.20
2018-05-15T10:59:38.652Z,25.20
2018-05-15T11:02:06.149Z,25.20
2018-05-15T11:04:34.734Z,25.40
2018-05-15T11:07:02.300Z,25.60
2018-05-15T11:09:29.839Z,25.70
2018-05-15T11:11:57.370Z,25.90
2018-05-15T11:14:24.926Z,25.90
2018-05-15T11:16:53.205Z,26.10
2018-05-15T11:19:33.539Z,26.10
2018-05-15T11:22:13.090Z,26.10
2018-05-15T11:24:54.660Z,26.20
2018-05-15T11:27:23.867Z,26.20
2018-05-15T11:29:52.269Z,26.40
2018-05-15T11:32:20.592Z,26.70
2018-05-15T11:34:48.231Z,26.70
2018-05-15T11:37:15.776Z,26.70
2018-05-15T11:39:47.824Z,26.90
2018-05-15T11:42:16.121Z,26.70
2018-05-15T11:44:45.788Z,26.70
2018-05-15T11:47:13.354Z,27.00
2018-05-15T11:49:42.619Z,26.60
2018-05-15T11:52:10.052Z,26.50
2018-05-15T11:54:36.790Z,26.30
2018-05-15T11:57:04.675Z,25.90
2018-05-15T11:59:32.182Z,25.70
2018-05-15T12:02:00.509Z,25.70
2018-05-15T12:04:28.025Z,25.70
2018-05-15T12:06:55.708Z,25.90
2018-05-15T12:09:23.283Z,25.90
2018-05-15T12:11:50.828Z,26.10
2018-05-15T12:14:18.340Z,26.10
2018-05-15T12:16:46.654Z,25.90
2018-05-15T12:19:14.227Z,25.80
2018-05-15T12:21:41.798Z,25.80
2018-05-15T12:24:09.448Z,26.30
2018-05-15T12:26:37.015Z,26.60
2018-05-15T12:29:04.561Z,26.70
2018-05-15T12:31:32.117Z,26.90
2018-05-15T12:33:59.685Z,27.00
2018-05-15T12:36:27.246Z,26.90
2018-05-15T12:38:54.898Z,26.60
2018-05-15T12:41:22.484Z,27.50
2018-05-15T12:43:50.717Z,29.40
2018-05-15T12:46:18.270Z,29.30
2018-05-15T12:48:45.861Z,29.70
2018-05-15T12:51:14.080Z,29.90
2018-05-15T12:53:42.515Z,30.50
2018-05-15T12:56:10.063Z,30.40
2018-05-15T12:58:38.269Z,31.60
2018-05-15T13:01:05.824Z,32.70
2018-05-15T13:03:33.757Z,34.00
2018-05-15T13:06:02.143Z,34.30
2018-05-15T13:08:29.692Z,34.20
2018-05-15T13:10:57.255Z,34.70
2018-05-15T13:13:24.773Z,35.00
2018-05-15T13:15:53.098Z,34.80
2018-05-15T13:18:20.622Z,34.70
2018-05-15T13:20:48.205Z,35.50
2018-05-15T13:23:15.765Z,36.10
2018-05-15T13:25:43.928Z,36.00
2018-05-15T13:28:11.455Z,36.10
2018-05-15T13:30:39.881Z,36.50
2018-05-15T13:33:07.413Z,36.40
2018-05-15T13:35:34.946Z,34.80
2018-05-15T13:38:02.551Z,33.40
2018-05-15T13:40:30.125Z,33.30
2018-05-15T13:42:57.879Z,34.00
2018-05-15T13:45:25.437Z,34.90
2018-05-15T13:47:52.956Z,35.60
2018-05-15T13:50:21.266Z,36.20
2018-05-15T13:52:48.852Z,36.20
2018-05-15T13:55:16.383Z,36.00
2018-05-15T13:57:43.952Z,36.90
2018-05-15T14:00:11.520Z,36.60
2018-05-15T14:02:39.033Z,36.20
2018-05-15T14:05:07.326Z,34.90
2018-05-15T14:07:34.879Z,34.90
2018-05-15T14:10:02.419Z,34.30
2018-05-15T14:12:30.741Z,34.90
2018-05-15T14:14:58.427Z,34.90
2018-05-15T14:17:25.981Z,35.10
2018-05-15T14:19:53.502Z,35.30
2018-05-15T14:22:21.079Z,35.80
2018-05-15T14:24:48.748Z,35.90
2018-05-15T14:27:16.168Z,35.20
2018-05-15T14:29:43.717Z,35.70
2018-05-15T14:32:11.998Z,36.40
2018-05-15T14:34:40.275Z,36.50
2018-05-15T14:37:07.825Z,36.50
2018-05-15T14:39:36.098Z,35.70
2018-05-15T14:42:16.270Z,35.70
2018-05-15T14:44:43.873Z,35.60
2018-05-15T14:47:11.388Z,35.90
2018-05-15T14:49:38.953Z,36.10
2018-05-15T14:52:06.525Z,35.90
2018-05-15T14:54:34.057Z,36.10
2018-05-15T14:57:01.629Z,36.10
2018-05-15T14:59:29.203Z,36.00
2018-05-15T15:01:56.735Z,35.80
2018-05-15T15:04:24.316Z,34.70
2018-05-15T15:06:51.852Z,33.60
2018-05-15T15:09:19.448Z,34.40
2018-05-15T15:11:46.984Z,35.60
2018-05-15T15:14:14.613Z,36.20
2018-05-15T15:16:42.945Z,34.70
2018-05-15T15:19:10.500Z,34.60
2018-05-15T15:21:38.027Z,33.10
2018-05-15T15:24:05.684Z,32.10
2018-05-15T15:26:33.221Z,31.10
2018-05-15T15:29:01.517Z,31.20
2018-05-15T15:31:29.042Z,31.20
2018-05-15T15:33:57.678Z,32.10
2018-05-15T15:36:25.233Z,32.00
2018-05-15T15:38:52.749Z,32.40
2018-05-15T15:41:20.314Z,33.00
2018-05-15T15:43:48.770Z,32.00
2018-05-15T15:46:16.192Z,32.00
2018-05-15T15:48:43.709Z,33.20
2018-05-15T15:51:12.126Z,35.00
2018-05-15T15:53:39.651Z,34.90
2018-05-15T15:56:07.935Z,36.10
2018-05-15T15:58:35.500Z,36.10
2018-05-15T16:01:03.037Z,36.90
2018-05-15T16:03:31.324Z,35.50
2018-05-15T16:05:59.637Z,33.20
2018-05-15T16:08:27.185Z,33.10
2018-05-15T16:10:54.743Z,31.80
2018-05-15T16:13:22.326Z,30.40
2018-05-15T16:15:49.852Z,29.50
2018-05-15T16:18:17.399Z,28.50
2018-05-15T16:20:45.716Z,27.40
2018-05-15T16:23:13.237Z,27.30
2018-05-15T16:25:40.823Z,26.60
2018-05-15T16:28:08.367Z,26.80
2018-05-15T16:30:35.892Z,28.00
2018-05-15T16:33:04.180Z,29.00
2018-05-15T16:35:32.584Z,28.50
2018-05-15T16:38:00.162Z,28.50
2018-05-15T16:40:27.692Z,28.10
2018-05-15T16:42:55.257Z,27.70
2018-05-15T16:45:22.784Z,26.90
2018-05-15T16:47:51.081Z,26.50
2018-05-15T16:50:18.659Z,26.40
2018-05-15T16:52:46.185Z,27.70
2018-05-15T16:55:14.491Z,29.10
2018-05-15T16:57:42.048Z,29.00
2018-05-15T17:00:09.561Z,29.20
2018-05-15T17:02:37.894Z,30.00
2018-05-15T17:05:05.572Z,30.00
2018-05-15T17:07:33.109Z,30.10
2018-05-15T17:10:00.650Z,30.40
2018-05-15T17:12:28.326Z,29.90
2018-05-15T17:14:55.846Z,29.70
2018-05-15T17:17:24.177Z,29.00
2018-05-15T17:19:51.693Z,29.00
2018-05-15T17:22:19.213Z,29.50
2018-05-15T17:24:46.846Z,29.30
2018-05-15T17:27:14.401Z,29.80
2018-05-15T17:29:41.917Z,30.40
2018-05-15T17:32:10.248Z,29.50
2018-05-15T17:34:37.762Z,29.40
2018-05-15T17:37:06.056Z,30.00
2018-05-15T17:39:33.623Z,30.00
2018-05-15T17:42:01.150Z,30.00
2018-05-15T17:44:29.425Z,28.90
2018-05-15T17:46:57.785Z,28.30
2018-05-15T17:49:25.305Z,28.20
2018-05-15T17:51:52.816Z,28.40
2018-05-15T17:54:21.137Z,28.00
2018-05-15T17:56:48.649Z,28.00
2018-05-15T17:59:16.964Z,26.90
2018-05-15T18:01:44.543Z,26.90
2018-05-15T18:04:12.071Z,27.00
2018-05-15T18:06:39.595Z,27.10
2018-05-15T18:09:07.929Z,26.00
2018-05-15T18:11:35.461Z,25.90
2018-05-15T18:14:02.997Z,25.10
2018-05-15T18:16:31.322Z,24.50
2018-05-15T18:18:58.838Z,24.40
2018-05-15T18:21:26.459Z,24.20
2018-05-15T18:23:54.075Z,24.00
2018-05-15T18:26:21.591Z,23.80
2018-05-15T18:28:49.094Z,23.50
2018-05-15T18:31:16.655Z,23.40
2018-05-15T18:33:45.016Z,23.20
2018-05-15T18:36:12.762Z,23.20
2018-05-15T18:38:41.073Z,22.90
2018-05-15T18:41:08.633Z,22.80
2018-05-15T18:43:36.169Z,22.70
2018-05-15T18:46:03.754Z,22.70
2018-05-15T18:48:31.310Z,22.50
2018-05-15T18:50:58.970Z,22.40
2018-05-15T18:53:26.556Z,22.30
2018-05-15T18:55:54.073Z,22.20
2018-05-15T18:58:21.650Z,22.00
2018-05-15T19:00:49.218Z,21.90
2018-05-15T19:03:16.747Z,21.80
2018-05-15T19:05:44.282Z,21.70
2018-05-15T19:08:12.620Z,21.40
2018-05-15T19:10:40.161Z,21.30
2018-05-15T19:13:07.690Z,21.20
2018-05-15T19:15:36.018Z,21.00
2018-05-15T19:18:03.539Z,21.00
2018-05-15T19:20:31.070Z,21.00
2018-05-15T19:22:59.394Z,20.70
2018-05-15T19:25:26.926Z,20.60
2018-05-15T19:27:54.498Z,20.50
2018-05-15T19:30:22.064Z,20.40
2018-05-15T19:32:55.163Z,20.30
2018-05-15T19:35:28.412Z,20.30
2018-05-15T19:37:56.726Z,20.10
2018-05-15T19:40:24.249Z,20.10
2018-05-15T19:42:51.862Z,20.00
2018-05-15T19:45:19.411Z,20.00
2018-05-15T19:47:46.944Z,19.90
2018-05-15T19:50:14.545Z,19.80
2018-05-15T19:52:42.192Z,19.80
2018-05-15T19:55:09.734Z,19.80
2018-05-15T19:57:37.290Z,19.80
2018-05-15T20:00:04.828Z,19.70
2018-05-15T20:02:32.349Z,19.60
2018-05-15T20:04:59.912Z,19.60
2018-05-15T20:07:27.451Z,19.50
2018-05-15T20:09:55.002Z,19.40
2018-05-15T20:12:22.677Z,19.40
2018-05-15T20:14:50.317Z,19.30
2018-05-15T20:17:17.983Z,19.20
2018-05-15T20:19:45.532Z,19.20
2018-05-15T20:22:13.093Z,19.10
2018-05-15T20:24:40.615Z,19.10
2018-05-15T20:27:08.925Z,18.90
2018-05-15T20:29:36.452Z,18.80
2018-05-15T20:32:04.051Z,18.70
2018-05-15T20:34:31.624Z,18.70
2018-05-15T20:36:59.284Z,18.70
2018-05-15T20:39:26.815Z,18.60
2018-05-15T20:41:54.389Z,18.60
2018-05-15T20:44:21.927Z,18.50
2018-05-15T20:46:49.462Z,18.50
2018-05-15T20:49:17.780Z,18.40
2018-05-15T20:51:45.305Z,18.40
2018-05-15T20:54:12.822Z,18.40
2018-05-15T20:56:40.397Z,18.30
2018-05-15T20:59:08.705Z,18.30
2018-05-15T21:01:36.244Z,18.20
2018-05-15T21:04:04.755Z,18.20
2018-05-15T21:06:33.329Z,18.20
2018-05-15T21:09:00.854Z,18.20
2018-05-15T21:11:29.291Z,18.30
2018-05-15T21:13:56.848Z,18.30
2018-05-15T21:16:24.411Z,18.30
2018-05-15T21:18:51.967Z,18.40
2018-05-15T21:21:19.524Z,18.40
2018-05-15T21:23:47.055Z,18.40
2018-05-15T21:26:14.642Z,18.40
2018-05-15T21:28:42.191Z,18.50
2018-05-15T21:31:09.713Z,18.50
2018-05-15T21:33:38.042Z,18.40
2018-05-15T21:36:05.593Z,18.40
2018-05-15T21:38:33.128Z,18.40
2018-05-15T21:41:00.722Z,18.40
2018-05-15T21:43:28.272Z,18.40
2018-05-15T21:45:55.796Z,18.40
2018-05-15T21:48:23.347Z,18.40
2018-05-15T21:50:52.588Z,18.30
2018-05-15T21:53:20.120Z,18.30
2018-05-15T21:55:47.681Z,18.20
2018-05-15T21:58:15.197Z,18.20
2018-05-15T22:00:43.526Z,18.00
2018-05-15T22:03:11.106Z,17.90
2018-05-15T22:05:38.651Z,18.00
2018-05-15T22:08:06.194Z,17.90
2018-05-15T22:10:33.754Z,17.80
2018-05-15T22:13:13.313Z,17.80
2018-05-15T22:15:52.774Z,17.80
2018-05-15T22:18:32.273Z,17.70
2018-05-15T22:21:11.678Z,17.70
2018-05-15T22:23:39.470Z,17.60
2018-05-15T22:26:06.990Z,17.50
2018-05-15T22:28:34.604Z,17.50
2018-05-15T22:31:02.122Z,17.50
2018-05-15T22:33:30.436Z,17.50
2018-05-15T22:35:58.015Z,17.40
2018-05-15T22:38:25.555Z,17.50
2018-05-15T22:40:53.095Z,17.50
2018-05-15T22:43:20.661Z,17.50
2018-05-15T22:45:48.174Z,17.40
2018-05-15T22:48:16.512Z,17.30
2018-05-15T22:50:44.158Z,17.20
2018-05-15T22:53:11.687Z,17.20
2018-05-15T22:55:40.408Z,17.10
2018-05-15T22:58:08.061Z,17.00
2018-05-15T23:00:35.867Z,17.00
2018-05-15T23:03:04.156Z,16.80
2018-05-15T23:05:31.800Z,16.80
2018-05-15T23:08:00.954Z,16.80
2018-05-15T23:10:28.492Z,16.70
2018-05-15T23:12:56.809Z,16.70
2018-05-15T23:15:24.342Z,16.70
2018-05-15T23:17:51.868Z,16.70
2018-05-15T23:20:20.298Z,16.80
2018-05-15T23:22:47.829Z,16.80
2018-05-15T23:25:15.377Z,16.80
2018-05-15T23:27:43.713Z,16.70
2018-05-15T23:30:11.252Z,16.70
2018-05-15T23:32:38.817Z,16.70
2018-05-15T23:35:06.479Z,16.80
2018-05-15T23:37:34.018Z,16.80
2018-05-15T23:40:01.543Z,16.80
2018-05-15T23:42:29.857Z,16.80
2018-05-15T23:44:57.415Z,16.80
2018-05-15T23:47:24.933Z,16.90
2018-05-15T23:49:53.368Z,17.00
2018-05-15T23:52:20.919Z,16.90
2018-05-15T23:54:48.456Z,17.00
2018-05-15T23:57:16.047Z,17.00
2018-05-15T23:59:43.610Z,16.90
